Terminal Aerodrome Forecast
Issued by NWS

Home | Current Version | Previous Version | Text Only | Print | Product List | Glossary On
Versions: 1 2 3 4 5 6 7 8 9 10 11 12 13 14 15 16 17 18 19
000
FTUS43 KILX 091130
TAFDEC
TAF
KDEC 091130Z 0912/1012 29008KT P6SM -SN OVC026
     FM091500 29007KT P6SM OVC035
     FM091800 29007KT P6SM BKN060
     FM100000 VRB03KT P6SM BKN080=

USA.gov is the U.S. government's official web portal to all federal, state and local government web resources and services.